createdAt,value
2023-04-20T00:00:23.325Z,7.3
2023-04-20T00:01:30.204Z,7.5
2023-04-20T00:02:37.198Z,7.3
2023-04-20T00:03:44.010Z,7.2
2023-04-20T00:04:50.825Z,7.3
2023-04-20T00:05:58.484Z,7.3
2023-04-20T00:07:05.311Z,7.4
2023-04-20T00:08:12.230Z,7.4
2023-04-20T00:09:19.278Z,7.4
2023-04-20T00:10:25.979Z,7.4
2023-04-20T00:11:32.763Z,7.4
2023-04-20T00:12:39.649Z,7.4
2023-04-20T00:13:46.580Z,7.4
2023-04-20T00:14:53.359Z,7.3
2023-04-20T00:16:00.293Z,7.3
2023-04-20T00:17:07.242Z,7.4
2023-04-20T00:18:14.116Z,7.5
2023-04-20T00:19:21.953Z,7.5
2023-04-20T00:20:28.814Z,7.6
2023-04-20T00:21:36.551Z,7.6
2023-04-20T00:22:43.492Z,7.6
2023-04-20T00:23:50.345Z,7.7
2023-04-20T00:24:57.248Z,7.6
2023-04-20T00:26:04.100Z,7.7
2023-04-20T00:27:10.951Z,7.7
2023-04-20T00:28:17.846Z,7.7
2023-04-20T00:29:24.848Z,7.7
2023-04-20T00:30:31.772Z,7.7
2023-04-20T00:31:38.707Z,7.8
2023-04-20T00:32:45.679Z,7.7
2023-04-20T00:33:52.587Z,7.6
2023-04-20T00:34:59.413Z,7.8
2023-04-20T00:36:06.314Z,7.8
2023-04-20T00:37:13.273Z,7.7
2023-04-20T00:38:20.181Z,7.8
2023-04-20T00:39:27.117Z,7.8
2023-04-20T00:40:33.968Z,7.8
2023-04-20T00:41:40.919Z,7.8
2023-04-20T00:42:47.760Z,7.7
2023-04-20T00:43:54.688Z,7.5
2023-04-20T00:45:01.603Z,7.6
2023-04-20T00:46:08.846Z,7.7
2023-04-20T00:47:15.743Z,7.7
2023-04-20T00:48:22.668Z,7.7
2023-04-20T00:49:29.504Z,7.8
2023-04-20T00:50:36.434Z,7.8
2023-04-20T00:51:44.124Z,7.8
2023-04-20T00:52:50.940Z,7.8
2023-04-20T00:53:57.826Z,7.6
2023-04-20T00:55:04.760Z,7.7
2023-04-20T00:56:11.805Z,7.8
2023-04-20T00:57:18.685Z,7.8
2023-04-20T00:58:25.505Z,7.9
2023-04-20T00:59:32.364Z,7.9
2023-04-20T01:00:39.200Z,7.9
2023-04-20T01:01:46.176Z,7.9
2023-04-20T01:02:53.108Z,7.8
2023-04-20T01:03:59.900Z,7.8
2023-04-20T01:05:06.797Z,7.8
2023-04-20T01:06:13.625Z,7.9
2023-04-20T01:07:20.460Z,7.8
2023-04-20T01:08:27.346Z,7.9
2023-04-20T01:09:34.972Z,7.9
2023-04-20T01:10:41.817Z,7.9
2023-04-20T01:11:48.631Z,7.8
2023-04-20T01:12:55.479Z,7.8
2023-04-20T01:14:02.385Z,7.8
2023-04-20T01:15:09.644Z,7.8
2023-04-20T01:16:16.503Z,7.7
2023-04-20T01:17:23.306Z,7.8
2023-04-20T01:18:30.094Z,7.8
2023-04-20T01:19:45.179Z,7.9
2023-04-20T01:20:52.116Z,7.9
2023-04-20T01:21:59.846Z,7.9
2023-04-20T01:23:06.719Z,7.9
2023-04-20T01:24:13.628Z,8
2023-04-20T01:25:20.509Z,7.9
2023-04-20T01:26:27.434Z,7.9
2023-04-20T01:27:34.210Z,8
2023-04-20T01:28:41.083Z,8
2023-04-20T01:29:47.919Z,8.1
2023-04-20T01:30:54.828Z,8
2023-04-20T01:32:01.665Z,8
2023-04-20T01:33:08.665Z,8
2023-04-20T01:34:15.510Z,8
2023-04-20T01:35:22.422Z,7.9
2023-04-20T01:36:29.302Z,7.9
2023-04-20T01:37:36.133Z,8
2023-04-20T01:38:42.971Z,8
2023-04-20T01:39:49.845Z,8
2023-04-20T01:40:56.645Z,8
2023-04-20T01:42:03.680Z,8
2023-04-20T01:43:10.466Z,7.9
2023-04-20T01:44:17.353Z,7.9
2023-04-20T01:45:24.296Z,7.8
2023-04-20T01:46:31.163Z,7.8
2023-04-20T01:47:40.777Z,7.8
2023-04-20T01:48:47.546Z,7.7
2023-04-20T01:49:54.357Z,7.8
2023-04-20T01:51:01.250Z,7.8
2023-04-20T01:52:08.170Z,7.8
2023-04-20T01:53:15.016Z,7.9
2023-04-20T01:54:21.854Z,7.8
2023-04-20T01:55:28.704Z,7.9
2023-04-20T01:56:35.622Z,7.7
2023-04-20T01:57:42.471Z,7.8
2023-04-20T01:58:49.331Z,7.7
2023-04-20T01:59:56.151Z,7.8
2023-04-20T02:01:03.356Z,7.7
2023-04-20T02:02:10.295Z,7.6
2023-04-20T02:03:17.234Z,7.7
2023-04-20T02:04:23.960Z,7.7
2023-04-20T02:05:30.807Z,7.8
2023-04-20T02:06:37.693Z,7.8
2023-04-20T02:07:44.540Z,7.8
2023-04-20T02:08:51.375Z,7.8
2023-04-20T02:09:58.266Z,7.7
2023-04-20T02:11:05.142Z,7.8
2023-04-20T02:12:12.186Z,7.8
2023-04-20T02:13:19.052Z,7.6
2023-04-20T02:14:25.885Z,7.6
2023-04-20T02:15:33.317Z,7.7
2023-04-20T02:16:40.285Z,7.7
2023-04-20T02:17:47.092Z,7.6
2023-04-20T02:18:53.935Z,7.7
2023-04-20T02:20:00.849Z,7.7
2023-04-20T02:21:07.827Z,7.8
2023-04-20T02:22:14.671Z,7.7
2023-04-20T02:23:21.505Z,7.6
2023-04-20T02:24:28.373Z,7.5
2023-04-20T02:25:35.222Z,7.6
2023-04-20T02:26:42.196Z,7.7
2023-04-20T02:27:49.136Z,7.7
2023-04-20T02:28:56.095Z,7.6
2023-04-20T02:30:02.953Z,7.6
2023-04-20T02:31:10.202Z,7.6
2023-04-20T02:32:17.031Z,7.6
2023-04-20T02:33:23.942Z,7.7
2023-04-20T02:34:30.827Z,7.6
2023-04-20T02:35:37.598Z,7.6
2023-04-20T02:36:44.438Z,7.6
2023-04-20T02:37:51.275Z,7.7
2023-04-20T02:38:58.130Z,7.6
2023-04-20T02:40:05.011Z,7.6
2023-04-20T02:41:11.934Z,7.6
2023-04-20T02:42:18.738Z,7.5
2023-04-20T02:43:25.537Z,7.5
2023-04-20T02:44:32.465Z,7.7
2023-04-20T02:45:39.352Z,7.7
2023-04-20T02:46:46.292Z,7.6
2023-04-20T02:47:53.096Z,7.6
2023-04-20T02:49:00.811Z,7.6
2023-04-20T02:50:07.646Z,7.7
2023-04-20T02:51:14.503Z,7.7
2023-04-20T02:52:21.332Z,7.7
2023-04-20T02:53:28.234Z,7.6
2023-04-20T02:54:35.067Z,7.7
2023-04-20T02:55:41.952Z,7.7
2023-04-20T02:56:48.769Z,7.6
2023-04-20T02:57:55.599Z,7.7
2023-04-20T02:59:02.470Z,7.7
2023-04-20T03:00:09.352Z,7.7
2023-04-20T03:01:16.363Z,7.5
2023-04-20T03:02:24.332Z,7.5
2023-04-20T03:03:33.699Z,7.6
2023-04-20T03:04:38.066Z,7.6
2023-04-20T03:05:44.858Z,7.4
2023-04-20T03:06:51.726Z,7.5
2023-04-20T03:07:58.670Z,7.5
2023-04-20T03:09:05.535Z,7.5
2023-04-20T03:10:12.397Z,7.5
2023-04-20T03:11:19.228Z,7.3
2023-04-20T03:12:26.150Z,7.5
2023-04-20T03:13:32.996Z,7.5
2023-04-20T03:14:39.832Z,7.6
2023-04-20T03:15:47.853Z,7.6
2023-04-20T03:16:54.674Z,7.7
2023-04-20T03:18:01.811Z,7.7
2023-04-20T03:19:08.606Z,7.8
2023-04-20T03:20:15.425Z,7.7
2023-04-20T03:21:23.904Z,7.8
2023-04-20T03:22:30.747Z,7.8
2023-04-20T03:23:37.622Z,7.8
2023-04-20T03:24:44.479Z,7.6
2023-04-20T03:25:52.215Z,7.7
2023-04-20T03:26:59.127Z,7.6
2023-04-20T03:28:06.047Z,7.7
2023-04-20T03:29:12.896Z,7.6
2023-04-20T03:30:21.869Z,7.5
2023-04-20T03:31:28.969Z,7.5
2023-04-20T03:32:35.959Z,7.5
2023-04-20T03:33:42.722Z,7.7
2023-04-20T03:34:49.526Z,7.7
2023-04-20T03:35:56.342Z,7.8
2023-04-20T03:37:03.258Z,7.9
2023-04-20T03:38:10.159Z,7.9
2023-04-20T03:39:17.460Z,8
2023-04-20T03:40:24.788Z,8
2023-04-20T03:41:31.703Z,8
2023-04-20T03:42:38.572Z,8
2023-04-20T03:43:45.384Z,8.1
2023-04-20T03:44:52.338Z,8.1
2023-04-20T03:45:59.194Z,8
2023-04-20T03:47:06.092Z,8.1
2023-04-20T03:48:12.867Z,8.1
2023-04-20T03:49:21.353Z,7.9
2023-04-20T03:50:30.992Z,8
2023-04-20T03:51:38.911Z,8
2023-04-20T03:52:45.823Z,8
2023-04-20T03:53:52.680Z,8
2023-04-20T03:54:59.504Z,8.1
2023-04-20T03:56:06.431Z,8.1
2023-04-20T03:57:13.273Z,7.9
2023-04-20T03:58:20.064Z,7.8
2023-04-20T03:59:26.878Z,7.8
2023-04-20T04:00:33.692Z,7.8
2023-04-20T04:01:40.518Z,7.8
2023-04-20T04:02:47.483Z,7.9
2023-04-20T04:03:54.321Z,7.9
2023-04-20T04:05:01.071Z,8
2023-04-20T04:06:08.005Z,7.9
2023-04-20T04:07:14.846Z,7.9
2023-04-20T04:08:21.620Z,7.9
2023-04-20T04:09:28.513Z,7.8
2023-04-20T04:10:35.378Z,7.9
2023-04-20T04:11:42.263Z,7.9
2023-04-20T04:12:49.140Z,8
2023-04-20T04:13:56.062Z,8.1
2023-04-20T04:15:02.978Z,8
2023-04-20T04:16:11.209Z,7.7
2023-04-20T04:17:18.122Z,7.5
2023-04-20T04:18:25.027Z,7.6
2023-04-20T04:19:31.879Z,7.7
2023-04-20T04:20:38.722Z,7.9
2023-04-20T04:21:45.485Z,8
2023-04-20T04:22:52.335Z,8
2023-04-20T04:23:59.147Z,8
2023-04-20T04:25:06.066Z,8
2023-04-20T04:26:13.077Z,8.1
2023-04-20T04:27:19.927Z,8.1
2023-04-20T04:28:26.790Z,8
2023-04-20T04:29:33.650Z,8.1
2023-04-20T04:30:40.544Z,8.2
2023-04-20T04:31:47.531Z,8.2
2023-04-20T04:32:54.408Z,8.2
2023-04-20T04:34:01.302Z,8.2
2023-04-20T04:35:08.039Z,8.3
2023-04-20T04:36:14.868Z,8.3
2023-04-20T04:37:21.684Z,8.3
2023-04-20T04:38:28.586Z,8.3
2023-04-20T04:39:35.453Z,8.3
2023-04-20T04:40:42.329Z,8.3
2023-04-20T04:41:49.141Z,8.3
2023-04-20T04:42:55.965Z,8.3
2023-04-20T04:44:02.786Z,8.3
2023-04-20T04:45:09.633Z,8.2
2023-04-20T04:46:16.590Z,8.3
2023-04-20T04:47:23.371Z,8.3
2023-04-20T04:48:30.214Z,8.3
2023-04-20T04:49:37.046Z,8.3
2023-04-20T04:50:46.632Z,8.3
2023-04-20T04:51:53.444Z,8.3
2023-04-20T04:53:00.340Z,8.4
2023-04-20T04:54:07.146Z,8.3
2023-04-20T04:55:16.214Z,8.4
2023-04-20T04:56:20.892Z,8.3
2023-04-20T04:57:28.635Z,8.3
2023-04-20T04:58:35.509Z,8.4
2023-04-20T04:59:42.371Z,8.3
2023-04-20T05:00:50.273Z,8.3
2023-04-20T05:01:57.111Z,8.4
2023-04-20T05:03:04.081Z,8.3
2023-04-20T05:04:10.997Z,8.2
2023-04-20T05:05:17.722Z,8.3
2023-04-20T05:06:24.654Z,8.4
2023-04-20T05:07:31.867Z,8.3
2023-04-20T05:08:39.674Z,8.3
2023-04-20T05:09:46.728Z,8.4
2023-04-20T05:10:54.570Z,8.4
2023-04-20T05:12:01.540Z,8.4
2023-04-20T05:13:08.617Z,8.5
2023-04-20T05:14:18.498Z,8.5
2023-04-20T05:15:25.849Z,8.6
2023-04-20T05:16:35.530Z,8.4
2023-04-20T05:17:46.274Z,8.5
2023-04-20T05:18:54.552Z,8.5
2023-04-20T05:20:02.002Z,8.6
2023-04-20T05:21:09.319Z,8.5
2023-04-20T05:22:16.251Z,8.4
2023-04-20T05:23:24.051Z,8.4
2023-04-20T05:24:31.019Z,8.5
2023-04-20T05:25:37.951Z,8.3
2023-04-20T05:26:45.025Z,8.2
2023-04-20T05:27:54.374Z,8.3
2023-04-20T05:29:04.418Z,8.2
2023-04-20T05:30:20.170Z,8.4
2023-04-20T05:31:18.323Z,8.5
2023-04-20T05:32:25.232Z,8.4
2023-04-20T05:33:35.078Z,8.5
2023-04-20T05:34:44.109Z,8.5
2023-04-20T05:35:55.262Z,8.5
2023-04-20T05:37:02.281Z,8.5
2023-04-20T05:38:12.022Z,8.6
2023-04-20T05:39:20.278Z,8.6
2023-04-20T05:40:26.898Z,8.6
2023-04-20T05:41:34.535Z,8.7
2023-04-20T05:42:41.527Z,8.6
2023-04-20T05:43:48.518Z,8.4
2023-04-20T05:44:55.439Z,8.3
2023-04-20T05:46:02.853Z,8.5
2023-04-20T05:47:10.813Z,8.6
2023-04-20T05:48:21.446Z,8.6
2023-04-20T05:49:29.726Z,8.6
2023-04-20T05:50:36.693Z,8.7
2023-04-20T05:51:44.846Z,8.7
2023-04-20T05:52:52.815Z,8.7
2023-04-20T05:54:02.806Z,8.8
2023-04-20T05:55:09.760Z,8.7
2023-04-20T05:56:16.732Z,8.8
2023-04-20T05:57:23.661Z,8.7
2023-04-20T05:58:32.535Z,8.8
2023-04-20T05:59:39.439Z,8.9
2023-04-20T06:00:46.353Z,8.9
2023-04-20T06:01:53.241Z,8.8
2023-04-20T06:03:00.204Z,8.9
2023-04-20T06:04:07.554Z,8.7
2023-04-20T06:05:14.106Z,8.8
2023-04-20T06:06:21.690Z,8.7
2023-04-20T06:07:28.617Z,8.7
2023-04-20T06:08:36.779Z,8.7
2023-04-20T06:09:43.653Z,8.6
2023-04-20T06:10:50.464Z,8.8
2023-04-20T06:12:04.369Z,8.7
2023-04-20T06:13:11.353Z,8.8
2023-04-20T06:14:18.280Z,8.9
2023-04-20T06:15:26.624Z,9.1
2023-04-20T06:16:33.721Z,8.9
2023-04-20T06:17:41.015Z,9
2023-04-20T06:18:47.399Z,9.1
2023-04-20T06:19:54.566Z,9.3
2023-04-20T06:21:02.298Z,9.3
2023-04-20T06:22:09.541Z,9.5
2023-04-20T06:23:16.456Z,9.6
2023-04-20T06:24:23.382Z,9.7
2023-04-20T06:25:30.240Z,9.5
2023-04-20T06:26:37.618Z,9.7
2023-04-20T06:27:46.317Z,9.6
2023-04-20T06:28:53.210Z,9.6
2023-04-20T06:30:01.228Z,9.6
2023-04-20T06:31:11.123Z,9.5
2023-04-20T06:32:17.905Z,9.5
2023-04-20T06:33:25.883Z,9.5
2023-04-20T06:34:34.992Z,9.5
2023-04-20T06:35:41.830Z,9.5
2023-04-20T06:36:48.648Z,9.6
2023-04-20T06:37:55.479Z,9.8
2023-04-20T06:39:03.682Z,9.7
2023-04-20T06:40:14.306Z,9.7
2023-04-20T06:41:19.703Z,9.8
2023-04-20T06:42:26.639Z,9.9
2023-04-20T06:43:33.512Z,9.9
2023-04-20T06:44:40.380Z,9.9
2023-04-20T06:45:48.375Z,10
2023-04-20T06:46:56.033Z,9.9
2023-04-20T06:48:03.915Z,9.7
2023-04-20T06:49:12.249Z,9.9
2023-04-20T06:50:20.191Z,10
2023-04-20T06:51:28.150Z,10.2
2023-04-20T06:52:35.110Z,10.1
2023-04-20T06:53:43.767Z,10.1
2023-04-20T06:54:50.625Z,10.2
2023-04-20T06:55:57.591Z,10.3
2023-04-20T06:57:04.969Z,10.4
2023-04-20T06:58:11.996Z,10.5
2023-04-20T06:59:19.373Z,10.4
2023-04-20T07:00:30.132Z,10.2
2023-04-20T07:01:37.967Z,10.3
2023-04-20T07:02:46.403Z,10.3
2023-04-20T07:03:54.776Z,10.3
2023-04-20T07:05:01.644Z,10.4
2023-04-20T07:06:08.844Z,10.5
2023-04-20T07:07:19.390Z,10.6
2023-04-20T07:08:28.427Z,10.8
2023-04-20T07:09:36.768Z,10.6
2023-04-20T07:10:43.789Z,10.6
2023-04-20T07:11:51.569Z,10.8
2023-04-20T07:12:58.361Z,10.7
2023-04-20T07:14:05.919Z,10.9
2023-04-20T07:15:14.674Z,10.6
2023-04-20T07:16:21.635Z,10.6
2023-04-20T07:17:28.381Z,10.5
2023-04-20T07:18:35.705Z,10.7
2023-04-20T07:19:42.182Z,10.8
2023-04-20T07:20:49.013Z,10.9
2023-04-20T07:21:55.885Z,11.1
2023-04-20T07:23:02.823Z,11.2
2023-04-20T07:24:12.796Z,11.3
2023-04-20T07:25:21.150Z,11.5
2023-04-20T07:26:28.038Z,11.6
2023-04-20T07:27:37.148Z,11.6
2023-04-20T07:28:44.086Z,11.5
2023-04-20T07:29:54.086Z,11.6
2023-04-20T07:31:01.209Z,11.6
2023-04-20T07:32:09.158Z,11.4
2023-04-20T07:33:18.216Z,11.5
2023-04-20T07:34:25.181Z,11.6
2023-04-20T07:35:36.465Z,11.6
2023-04-20T07:36:43.450Z,11.6
2023-04-20T07:37:50.380Z,11.6
2023-04-20T07:38:57.270Z,11.7
2023-04-20T07:40:04.684Z,11.8
2023-04-20T07:41:13.492Z,11.8
2023-04-20T07:42:23.159Z,11.4
2023-04-20T07:43:30.148Z,11.3
2023-04-20T07:44:37.071Z,11.5
2023-04-20T07:45:44.926Z,11.6
2023-04-20T07:46:56.236Z,11.6
2023-04-20T07:48:04.204Z,11.6
2023-04-20T07:49:11.110Z,11.4
2023-04-20T07:50:18.704Z,11.4
2023-04-20T07:51:27.468Z,11.6
2023-04-20T07:52:34.455Z,11.3
2023-04-20T07:53:41.382Z,11.5
2023-04-20T07:54:49.181Z,11.8
2023-04-20T07:56:02.437Z,12
2023-04-20T07:57:10.862Z,12
2023-04-20T07:58:17.846Z,12.2
2023-04-20T07:59:24.657Z,12.1
2023-04-20T08:00:34.899Z,12.1
2023-04-20T08:01:41.941Z,12.1
2023-04-20T08:02:49.836Z,12.2
2023-04-20T08:03:57.544Z,12.3
2023-04-20T08:05:04.460Z,12
2023-04-20T08:06:11.177Z,12.1
2023-04-20T08:07:18.088Z,12.2
2023-04-20T08:08:24.935Z,12.2
2023-04-20T08:09:31.790Z,11.9
2023-04-20T08:10:38.642Z,12
2023-04-20T08:11:46.479Z,11.9
2023-04-20T08:12:54.252Z,11.9
2023-04-20T08:14:01.236Z,12.1
2023-04-20T08:15:08.315Z,12.1
2023-04-20T08:16:14.992Z,12.3
2023-04-20T08:17:24.962Z,12.4
2023-04-20T08:18:31.816Z,12.5
2023-04-20T08:19:39.540Z,12.6
2023-04-20T08:20:48.164Z,12.7
2023-04-20T08:21:55.036Z,12.4
2023-04-20T08:23:01.852Z,12.6
2023-04-20T08:24:08.651Z,12.7
2023-04-20T08:25:15.451Z,12.6
2023-04-20T08:26:22.431Z,12.5
2023-04-20T08:27:30.699Z,12.2
2023-04-20T08:28:38.596Z,12.3
2023-04-20T08:29:45.434Z,12.6
2023-04-20T08:30:52.582Z,12.8
2023-04-20T08:31:59.343Z,13
2023-04-20T08:33:06.910Z,13
2023-04-20T08:34:14.956Z,13.3
2023-04-20T08:35:21.813Z,13.5
2023-04-20T08:36:30.878Z,13.4
2023-04-20T08:37:37.689Z,13.3
2023-04-20T08:38:44.528Z,13.4
2023-04-20T08:39:51.620Z,13.2
2023-04-20T08:40:58.524Z,13.3
2023-04-20T08:42:06.271Z,13.5
2023-04-20T08:43:13.071Z,13.4
2023-04-20T08:44:19.948Z,13.6
2023-04-20T08:45:27.131Z,13.8
2023-04-20T08:46:34.400Z,14
2023-04-20T08:47:42.974Z,14
2023-04-20T08:48:49.746Z,13.6
2023-04-20T08:49:56.581Z,13.6
2023-04-20T08:51:03.462Z,13.4
2023-04-20T08:52:10.302Z,13.3
2023-04-20T08:53:20.383Z,13.1
2023-04-20T08:54:27.224Z,13.1
2023-04-20T08:55:34.102Z,12.9
2023-04-20T08:56:41.915Z,12.9
2023-04-20T08:57:49.042Z,12.9
2023-04-20T08:58:55.777Z,13
2023-04-20T09:00:02.657Z,13.1
2023-04-20T09:01:12.961Z,12.9
2023-04-20T09:02:18.930Z,13.1
2023-04-20T09:03:26.700Z,13.1
2023-04-20T09:04:38.695Z,13
2023-04-20T09:05:45.441Z,12.7
2023-04-20T09:06:52.278Z,12.5
2023-04-20T09:07:59.112Z,12.8
2023-04-20T09:09:06.894Z,12.8
2023-04-20T09:10:13.740Z,12.8
2023-04-20T09:11:20.671Z,12.9
2023-04-20T09:12:27.536Z,13
2023-04-20T09:13:34.390Z,13.2
2023-04-20T09:14:41.325Z,13.3
2023-04-20T09:15:48.179Z,13.7
2023-04-20T09:16:54.964Z,13.9
2023-04-20T09:18:01.954Z,14.1
2023-04-20T09:19:17.538Z,14.3
2023-04-20T09:20:24.407Z,14.4
2023-04-20T09:21:37.739Z,14.6
2023-04-20T09:22:52.539Z,14.5
2023-04-20T09:23:59.349Z,14.5
2023-04-20T09:25:06.163Z,14.5
2023-04-20T09:26:19.053Z,14.6
2023-04-20T09:27:25.860Z,14.6
2023-04-20T09:28:32.763Z,14.3
2023-04-20T09:29:39.638Z,14.2
2023-04-20T09:30:47.519Z,14.1
2023-04-20T09:31:54.466Z,14.1
2023-04-20T09:33:01.281Z,14.1
2023-04-20T09:34:09.091Z,14.2
2023-04-20T09:35:15.872Z,14.1
2023-04-20T09:36:26.642Z,14.2
2023-04-20T09:37:41.147Z,14.1
2023-04-20T09:38:50.920Z,14.2
2023-04-20T09:40:08.156Z,14.3
2023-04-20T09:41:15.095Z,14.1
2023-04-20T09:42:21.977Z,14.2
2023-04-20T09:43:28.834Z,14.4
2023-04-20T09:44:35.694Z,14.5
2023-04-20T09:45:42.519Z,14.6
2023-04-20T09:46:49.234Z,14.6
2023-04-20T09:47:56.028Z,14.4
2023-04-20T09:49:02.783Z,14.5
2023-04-20T09:50:19.842Z,14.5
2023-04-20T09:51:16.510Z,14.6
2023-04-20T09:52:23.389Z,14.4
2023-04-20T09:53:30.259Z,14.6
2023-04-20T09:54:37.099Z,14.8
2023-04-20T09:55:43.915Z,14.8
2023-04-20T09:56:53.759Z,14.7
2023-04-20T09:58:00.734Z,14.7
2023-04-20T09:59:07.585Z,14.5
2023-04-20T10:00:14.414Z,14.3
2023-04-20T10:01:21.492Z,14.4
2023-04-20T10:02:28.506Z,14.6
2023-04-20T10:03:35.390Z,14.4
2023-04-20T10:04:42.345Z,14.4
2023-04-20T10:05:56.951Z,14.4
2023-04-20T10:07:03.863Z,14.2
2023-04-20T10:08:10.766Z,14.2
2023-04-20T10:09:17.731Z,14.3
2023-04-20T10:10:24.514Z,14.3
2023-04-20T10:11:37.396Z,14.3
2023-04-20T10:12:38.158Z,14.1
2023-04-20T10:13:50.144Z,14
2023-04-20T10:14:56.975Z,13.9
2023-04-20T10:16:03.768Z,13.8
2023-04-20T10:17:10.812Z,13.7
2023-04-20T10:18:17.594Z,13.8
2023-04-20T10:19:24.377Z,13.9
2023-04-20T10:20:39.220Z,14
2023-04-20T10:21:46.012Z,14.1
2023-04-20T10:22:52.961Z,14.2
2023-04-20T10:24:00.134Z,14.1
2023-04-20T10:25:07.141Z,13.9
2023-04-20T10:26:16.843Z,14.1
2023-04-20T10:27:23.675Z,14.1
2023-04-20T10:28:30.517Z,14.2
2023-04-20T10:29:40.580Z,14.2
2023-04-20T10:30:47.457Z,14.1
2023-04-20T10:31:54.311Z,14.2
2023-04-20T10:33:01.219Z,14.2
2023-04-20T10:34:13.821Z,14.3
2023-04-20T10:35:20.701Z,14.2
2023-04-20T10:36:27.598Z,14.3
2023-04-20T10:37:37.019Z,14.3
2023-04-20T10:38:52.054Z,14.1
2023-04-20T10:39:58.976Z,14
2023-04-20T10:41:05.855Z,13.9
2023-04-20T10:42:12.679Z,14
2023-04-20T10:43:19.460Z,14
2023-04-20T10:44:26.303Z,13.8
2023-04-20T10:45:33.081Z,14
2023-04-20T10:46:40.829Z,13.9
2023-04-20T10:47:47.702Z,14
2023-04-20T10:48:54.591Z,14
2023-04-20T10:50:01.533Z,14.1
2023-04-20T10:51:14.300Z,14.1
2023-04-20T10:52:21.276Z,14.1
2023-04-20T10:53:36.279Z,14.3
2023-04-20T10:54:43.065Z,14.3
2023-04-20T10:55:50.986Z,14.3
2023-04-20T10:57:01.093Z,14.4
2023-04-20T10:58:07.960Z,14.4
2023-04-20T10:59:25.096Z,14.4
2023-04-20T11:00:31.928Z,14.4
2023-04-20T11:01:38.800Z,14.2
2023-04-20T11:02:45.575Z,14.2
2023-04-20T11:03:52.441Z,14.2
2023-04-20T11:04:59.405Z,14.3
2023-04-20T11:06:12.056Z,14.4
2023-04-20T11:07:19.055Z,14.4
2023-04-20T11:08:26.057Z,14.4
2023-04-20T11:09:40.962Z,14.4
2023-04-20T11:10:50.834Z,14.4
2023-04-20T11:11:57.676Z,14.4
2023-04-20T11:13:07.316Z,14.4
2023-04-20T11:14:24.575Z,14.4
2023-04-20T11:15:31.441Z,14.4
2023-04-20T11:16:49.506Z,14.4
2023-04-20T11:17:45.261Z,14.4
2023-04-20T11:18:52.053Z,14.5
2023-04-20T11:19:58.923Z,14.5
2023-04-20T11:21:16.049Z,14.5
2023-04-20T11:22:22.952Z,14.4
2023-04-20T11:23:29.973Z,14.5
2023-04-20T11:24:37.355Z,14.5
2023-04-20T11:25:44.458Z,14.5
2023-04-20T11:26:54.392Z,14.3
2023-04-20T11:28:01.346Z,14.4
2023-04-20T11:29:11.036Z,14.4
2023-04-20T11:30:19.816Z,14.4
2023-04-20T11:31:26.810Z,14.3
2023-04-20T11:32:33.897Z,14.1
2023-04-20T11:33:40.592Z,14.2
2023-04-20T11:34:50.183Z,14.1
2023-04-20T11:36:02.304Z,14.2
2023-04-20T11:37:09.245Z,14.3
2023-04-20T11:38:19.093Z,14.3
2023-04-20T11:39:31.111Z,14.3
2023-04-20T11:40:37.946Z,14.2
2023-04-20T11:41:44.906Z,14.3
2023-04-20T11:42:51.777Z,14.3
2023-04-20T11:43:58.677Z,14.3
2023-04-20T11:45:05.488Z,14.4
2023-04-20T11:46:13.965Z,14.4
2023-04-20T11:47:23.968Z,14.4
2023-04-20T11:48:30.749Z,14.4
2023-04-20T11:49:37.570Z,14.4
2023-04-20T11:50:44.529Z,14.4
2023-04-20T11:51:51.412Z,14.4
2023-04-20T11:52:58.179Z,14.4
2023-04-20T11:54:04.994Z,14.5
2023-04-20T11:55:11.782Z,14.5
2023-04-20T11:56:18.672Z,14.6
2023-04-20T11:57:25.524Z,14.6
2023-04-20T11:58:32.369Z,14.6
2023-04-20T11:59:39.386Z,14.6
2023-04-20T12:00:46.295Z,14.6
2023-04-20T12:01:53.187Z,14.5
2023-04-20T12:03:00.167Z,14.5
2023-04-20T12:04:07.138Z,14.5
2023-04-20T12:05:13.693Z,14.5
2023-04-20T12:06:20.545Z,14.4
2023-04-20T12:07:27.420Z,14.5
2023-04-20T12:08:34.222Z,14.6
2023-04-20T12:09:40.964Z,14.7
2023-04-20T12:10:47.801Z,14.8
2023-04-20T12:11:54.692Z,14.8
2023-04-20T12:13:01.530Z,14.6
2023-04-20T12:14:08.400Z,14.8
2023-04-20T12:15:15.182Z,15
2023-04-20T12:16:22.016Z,15
2023-04-20T12:17:28.805Z,14.9
2023-04-20T12:18:35.585Z,15.1
2023-04-20T12:19:43.000Z,15.2
2023-04-20T12:20:49.891Z,15.4
2023-04-20T12:21:56.662Z,15.4
2023-04-20T12:23:03.523Z,15.4
2023-04-20T12:24:10.358Z,15.4
2023-04-20T12:25:17.158Z,15.4
2023-04-20T12:26:34.769Z,15.4
2023-04-20T12:27:31.127Z,15.3
2023-04-20T12:28:37.954Z,15.3
2023-04-20T12:29:44.923Z,15.2
2023-04-20T12:30:51.716Z,15.3
2023-04-20T12:31:58.690Z,15.2
2023-04-20T12:33:05.370Z,15.2
2023-04-20T12:34:12.197Z,15.3
2023-04-20T12:35:19.205Z,15.3
2023-04-20T12:36:26.146Z,15.3
2023-04-20T12:37:34.517Z,15.3
2023-04-20T12:38:41.608Z,15.2
2023-04-20T12:39:48.569Z,15.2
2023-04-20T12:40:55.549Z,15.5
2023-04-20T12:42:03.646Z,15.6
2023-04-20T12:43:10.464Z,15.5
2023-04-20T12:44:17.629Z,15.7
2023-04-20T12:45:24.195Z,15.8
2023-04-20T12:46:31.111Z,15.8
2023-04-20T12:47:37.938Z,15.9
2023-04-20T12:48:44.761Z,15.7
2023-04-20T12:49:51.556Z,15.8
2023-04-20T12:50:58.332Z,15.8
2023-04-20T12:52:07.583Z,15.5
2023-04-20T12:53:12.334Z,15.4
2023-04-20T12:54:19.470Z,15.3
2023-04-20T12:55:26.237Z,15.3
2023-04-20T12:56:34.033Z,15.1
2023-04-20T12:57:41.082Z,15.1
2023-04-20T12:58:47.976Z,15.2
2023-04-20T12:59:54.855Z,15
2023-04-20T13:01:01.791Z,15
2023-04-20T13:02:08.891Z,15
2023-04-20T13:03:15.775Z,15.1
2023-04-20T13:04:23.039Z,15.1
2023-04-20T13:05:29.517Z,15.1
2023-04-20T13:06:39.723Z,15.3
2023-04-20T13:07:46.593Z,15.3
2023-04-20T13:08:53.545Z,15.4
2023-04-20T13:10:00.532Z,15.3
2023-04-20T13:11:11.948Z,15.5
2023-04-20T13:12:18.885Z,15.4
2023-04-20T13:13:26.751Z,15.3
2023-04-20T13:14:33.730Z,15.1
2023-04-20T13:15:40.672Z,15.1
2023-04-20T13:16:47.783Z,15.2
2023-04-20T13:17:54.929Z,15.3
2023-04-20T13:19:01.786Z,15.3
2023-04-20T13:20:08.788Z,15.3
2023-04-20T13:21:15.769Z,15.3
2023-04-20T13:22:23.180Z,15.3
2023-04-20T13:23:30.201Z,15.3
2023-04-20T13:24:37.199Z,15.2
2023-04-20T13:25:44.163Z,15.3
2023-04-20T13:26:51.124Z,15.3
2023-04-20T13:28:01.133Z,15.3
2023-04-20T13:29:08.196Z,15.3
2023-04-20T13:30:15.219Z,15.4
2023-04-20T13:31:22.195Z,15.5
2023-04-20T13:32:29.073Z,15.6
2023-04-20T13:33:36.199Z,15.7
2023-04-20T13:34:46.128Z,15.8
2023-04-20T13:35:53.164Z,15.9
2023-04-20T13:37:00.260Z,15.8
2023-04-20T13:38:07.190Z,15.7
2023-04-20T13:39:14.207Z,15.9
2023-04-20T13:40:21.176Z,15.8
2023-04-20T13:41:28.702Z,15.8
2023-04-20T13:42:35.715Z,15.8
2023-04-20T13:43:42.614Z,15.8
2023-04-20T13:44:49.544Z,15.7
2023-04-20T13:45:56.605Z,15.6
2023-04-20T13:47:03.603Z,15.5
2023-04-20T13:48:10.685Z,15.5
2023-04-20T13:49:17.734Z,15.4
2023-04-20T13:50:26.012Z,15.4
2023-04-20T13:51:32.980Z,15.4
2023-04-20T13:52:39.979Z,15.4
2023-04-20T13:53:47.064Z,15.5
2023-04-20T13:54:53.978Z,15.4
2023-04-20T13:56:00.908Z,15.4
2023-04-20T13:57:23.287Z,15.3
2023-04-20T13:58:30.295Z,15.3
2023-04-20T13:59:37.125Z,15.3
2023-04-20T14:00:44.019Z,15.3
2023-04-20T14:01:51.073Z,15.3
2023-04-20T14:02:57.785Z,15.3
2023-04-20T14:04:04.634Z,15.3
2023-04-20T14:05:11.429Z,15.2
2023-04-20T14:06:18.250Z,15.3
2023-04-20T14:07:25.154Z,15.3
2023-04-20T14:08:31.895Z,15.4
2023-04-20T14:09:38.730Z,15.4
2023-04-20T14:10:45.562Z,15.4
2023-04-20T14:11:54.956Z,15.4
2023-04-20T14:12:59.161Z,15.5
2023-04-20T14:14:05.932Z,15.6
2023-04-20T14:15:12.732Z,15.7
2023-04-20T14:16:19.671Z,15.7
2023-04-20T14:17:26.424Z,15.6
2023-04-20T14:18:33.233Z,15.8
2023-04-20T14:19:40.023Z,16
2023-04-20T14:20:46.841Z,16.1
2023-04-20T14:21:53.732Z,16.1
2023-04-20T14:23:00.527Z,16.2
2023-04-20T14:24:07.263Z,16.3
2023-04-20T14:25:14.061Z,16.3
2023-04-20T14:26:20.958Z,16.2
2023-04-20T14:27:27.800Z,16.2
2023-04-20T14:28:34.650Z,16
2023-04-20T14:29:41.462Z,16.1
2023-04-20T14:30:48.321Z,16
2023-04-20T14:31:56.099Z,16
2023-04-20T14:33:02.993Z,15.9
2023-04-20T14:34:09.762Z,15.9
2023-04-20T14:35:16.587Z,15.8
2023-04-20T14:36:23.392Z,15.8
2023-04-20T14:37:30.186Z,15.6
2023-04-20T14:38:37.009Z,15.4
2023-04-20T14:39:43.828Z,15.5
2023-04-20T14:40:50.855Z,15.5
2023-04-20T14:41:57.660Z,15.6
2023-04-20T14:43:04.505Z,15.6
2023-04-20T14:44:11.330Z,15.6
2023-04-20T14:45:18.129Z,15.7
2023-04-20T14:46:25.109Z,15.7
2023-04-20T14:47:31.865Z,15.8
2023-04-20T14:48:38.605Z,15.9
2023-04-20T14:49:45.476Z,15.9
2023-04-20T14:50:52.309Z,16
2023-04-20T14:51:59.183Z,16.2
2023-04-20T14:53:06.048Z,16.1
2023-04-20T14:54:12.811Z,16.1
2023-04-20T14:55:19.788Z,16.1
2023-04-20T14:56:26.675Z,16.1
2023-04-20T14:57:33.445Z,16
2023-04-20T14:58:40.295Z,16
2023-04-20T14:59:47.147Z,16
2023-04-20T15:00:53.934Z,15.9
2023-04-20T15:02:03.235Z,15.9
2023-04-20T15:03:07.766Z,16
2023-04-20T15:04:14.451Z,16.1
2023-04-20T15:05:21.199Z,16.1
2023-04-20T15:06:27.904Z,16.1
2023-04-20T15:07:34.718Z,16
2023-04-20T15:08:41.493Z,16
2023-04-20T15:09:48.289Z,16
2023-04-20T15:10:57.258Z,16.1
2023-04-20T15:12:04.277Z,16.1
2023-04-20T15:13:11.219Z,16.1
2023-04-20T15:14:19.326Z,16
2023-04-20T15:15:34.628Z,16
2023-04-20T15:16:34.023Z,16